Time;durP1;ratioP1;P1;durP2;ratioP2;P2;SDS_P1;SDS_P2;PMS_P1;PMS_P2;Temp;Humidity;BMP_temperature;BMP_pressure;BME280_temperature;BME280_humidity;BME280_pressure;Samples;Min_cycle;Max_cycle;Signal;HPM_P1;HPM_P2
2024/01/15 00:00:53;;;;;;;8.15;3.15;;;-2.00;99.90;;;;;;5055195;28;20614;-77
2024/01/15 00:03:19;;;;;;;3.28;2.80;;;-2.00;99.90;;;;;;5055249;28;20224;-77
2024/01/15 00:05:47;;;;;;;5.05;4.25;;;-1.90;99.90;;;;;;5055464;28;20201;-77
2024/01/15 00:08:14;;;;;;;5.63;3.70;;;-1.90;99.90;;;;;;5055084;28;20199;-77
2024/01/15 00:10:42;;;;;;;6.18;3.38;;;-1.90;99.90;;;;;;5051957;28;20203;-77
2024/01/15 00:13:09;;;;;;;3.78;3.10;;;-1.90;99.90;;;;;;5058958;28;20265;-76
2024/01/15 00:15:36;;;;;;;3.40;2.63;;;-1.90;99.90;;;;;;5058418;28;20240;-77
2024/01/15 00:18:03;;;;;;;5.88;3.30;;;-1.90;99.90;;;;;;5053028;28;20623;-77
2024/01/15 00:20:29;;;;;;;4.85;2.30;;;-1.90;99.90;;;;;;5064401;28;20208;-77
2024/01/15 00:22:57;;;;;;;10.25;3.63;;;-1.90;99.90;;;;;;5062857;28;20224;-77
2024/01/15 00:25:24;;;;;;;4.22;2.67;;;-1.80;99.90;;;;;;5054639;28;20690;-77
2024/01/15 00:27:51;;;;;;;6.53;3.83;;;-1.80;99.90;;;;;;5054525;28;20205;-77
2024/01/15 00:30:18;;;;;;;3.55;2.60;;;-1.80;99.90;;;;;;5054100;28;20204;-77
2024/01/15 00:32:44;;;;;;;3.72;3.33;;;-1.80;99.90;;;;;;5053771;28;20753;-77
2024/01/15 00:35:11;;;;;;;6.35;4.05;;;-1.90;99.90;;;;;;5063163;28;20213;-76
2024/01/15 00:37:39;;;;;;;3.85;2.75;;;-1.90;99.90;;;;;;5053826;28;20732;-77
2024/01/15 00:40:08;;;;;;;7.32;3.65;;;-1.90;99.90;;;;;;5054106;28;20231;-76
2024/01/15 00:42:35;;;;;;;2.92;2.72;;;-2.00;99.90;;;;;;5056463;28;20298;-77
2024/01/15 00:45:02;;;;;;;5.60;4.50;;;-2.00;99.90;;;;;;5054080;28;20205;-76
2024/01/15 00:47:29;;;;;;;4.35;2.08;;;-2.00;99.90;;;;;;5054086;28;20577;-77
2024/01/15 00:49:55;;;;;;;7.72;2.95;;;-2.10;99.90;;;;;;5053783;28;20201;-77
2024/01/15 00:52:22;;;;;;;4.75;2.47;;;-2.10;99.90;;;;;;5053954;28;20217;-76
2024/01/15 00:54:49;;;;;;;5.57;2.95;;;-2.10;99.90;;;;;;5053492;28;20224;-77
2024/01/15 00:57:18;;;;;;;6.18;3.88;;;-2.20;99.90;;;;;;5053748;28;20217;-77
2024/01/15 00:59:45;;;;;;;2.58;2.35;;;-2.20;99.90;;;;;;5053067;28;20209;-77
2024/01/15 01:02:12;;;;;;;3.75;3.22;;;-2.20;99.90;;;;;;5053592;28;20232;-77
2024/01/15 01:04:39;;;;;;;2.30;1.92;;;-2.10;99.90;;;;;;5052685;28;20202;-77
2024/01/15 01:07:05;;;;;;;7.15;2.95;;;-2.10;99.90;;;;;;5053716;28;20217;-77
2024/01/15 01:09:32;;;;;;;7.93;3.33;;;-2.10;99.90;;;;;;5053120;28;20211;-77
2024/01/15 01:11:59;;;;;;;7.20;3.90;;;-2.10;99.90;;;;;;5053355;28;20224;-77
2024/01/15 01:14:27;;;;;;;4.22;3.83;;;-2.00;99.90;;;;;;5053283;28;20235;-77
2024/01/15 01:16:54;;;;;;;3.00;2.80;;;-2.00;99.90;;;;;;5053442;28;20228;-77
2024/01/15 01:19:21;;;;;;;3.75;2.78;;;-1.90;99.90;;;;;;5053166;28;20201;-77
2024/01/15 01:21:47;;;;;;;4.85;3.33;;;-1.90;99.90;;;;;;5050944;28;20233;-77
2024/01/15 01:24:14;;;;;;;6.13;4.80;;;-1.90;99.90;;;;;;5053530;28;20213;-77
2024/01/15 01:26:41;;;;;;;7.30;3.85;;;-1.90;99.90;;;;;;5053289;28;20220;-77
2024/01/15 01:29:08;;;;;;;4.82;1.88;;;-1.90;99.90;;;;;;5053026;28;20690;-77
2024/01/15 01:31:36;;;;;;;13.52;4.05;;;-1.90;99.90;;;;;;5052823;28;20239;-77
2024/01/15 01:34:03;;;;;;;7.30;4.45;;;-1.90;99.90;;;;;;5046874;28;20202;-77
2024/01/15 01:36:29;;;;;;;3.88;2.75;;;-1.90;99.90;;;;;;5052697;28;20213;-77
2024/01/15 01:38:56;;;;;;;9.98;4.63;;;-1.90;99.90;;;;;;5052951;28;20221;-77
2024/01/15 01:41:24;;;;;;;4.68;3.10;;;-1.90;99.90;;;;;;5053165;28;20232;-77
2024/01/15 01:43:50;;;;;;;6.05;2.63;;;-2.00;99.90;;;;;;5050969;28;20747;-77
2024/01/15 01:46:18;;;;;;;3.45;3.15;;;-2.00;99.90;;;;;;5053335;28;20197;-77
2024/01/15 01:48:46;;;;;;;3.05;2.35;;;-2.00;99.90;;;;;;5052437;28;20782;-77
2024/01/15 01:51:13;;;;;;;7.32;3.30;;;-2.00;99.90;;;;;;5052846;28;20206;-77
2024/01/15 01:53:40;;;;;;;6.95;3.92;;;-2.10;99.90;;;;;;5052088;28;20201;-77
2024/01/15 01:56:08;;;;;;;8.50;2.92;;;-2.00;99.90;;;;;;5052898;28;20206;-77
2024/01/15 01:58:35;;;;;;;4.55;2.70;;;-2.00;99.90;;;;;;5052258;28;20218;-77
2024/01/15 02:01:02;;;;;;;5.20;2.30;;;-2.00;99.90;;;;;;5053374;28;20205;-77
2024/01/15 02:03:29;;;;;;;9.50;4.03;;;-2.00;99.90;;;;;;5052154;28;20200;-77
2024/01/15 02:05:57;;;;;;;3.80;3.28;;;-2.00;99.90;;;;;;5052526;28;20212;-77
2024/01/15 02:08:24;;;;;;;3.08;2.40;;;-2.00;99.90;;;;;;5052771;28;20682;-77
2024/01/15 02:10:51;;;;;;;4.90;4.47;;;-2.00;99.90;;;;;;5052161;28;20301;-77
2024/01/15 02:13:18;;;;;;;6.43;3.65;;;-2.00;99.90;;;;;;5052308;28;20220;-77
2024/01/15 02:15:45;;;;;;;4.70;3.17;;;-2.00;99.90;;;;;;5051651;28;20205;-77
2024/01/15 02:18:12;;;;;;;5.95;3.50;;;-2.00;99.90;;;;;;5052552;28;20224;-77
2024/01/15 02:20:38;;;;;;;7.00;4.18;;;-2.00;99.90;;;;;;5051965;28;20209;-77
2024/01/15 02:23:11;;;;;;;5.63;2.38;;;-2.10;99.90;;;;;;5052236;28;20221;-77
2024/01/15 02:25:39;;;;;;;9.35;3.97;;;-2.10;99.90;;;;;;5052332;28;20259;-77
2024/01/15 02:28:07;;;;;;;5.40;2.35;;;-2.10;99.90;;;;;;5046071;28;20209;-77
2024/01/15 02:30:37;;;;;;;6.70;3.08;;;-2.10;99.90;;;;;;5052336;28;20271;-77
2024/01/15 02:33:04;;;;;;;7.72;3.47;;;-2.10;99.90;;;;;;5045572;28;20681;-77
2024/01/15 02:35:31;;;;;;;6.65;3.70;;;-2.10;99.90;;;;;;5052020;28;20213;-77
2024/01/15 02:37:58;;;;;;;1.90;1.80;;;-2.10;99.90;;;;;;5052250;28;20225;-77
2024/01/15 02:40:26;;;;;;;5.30;3.63;;;-2.10;99.90;;;;;;5052614;28;20201;-78
2024/01/15 02:42:53;;;;;;;5.38;2.80;;;-2.10;99.90;;;;;;5051315;28;20590;-78
2024/01/15 02:45:20;;;;;;;5.82;3.95;;;-2.10;99.90;;;;;;5051834;28;20801;-77
2024/01/15 02:47:47;;;;;;;7.03;4.30;;;-2.00;99.90;;;;;;5051598;28;20205;-77
2024/01/15 02:50:14;;;;;;;3.65;2.47;;;-2.00;99.90;;;;;;5052233;28;20205;-77
2024/01/15 02:52:40;;;;;;;7.93;3.17;;;-2.10;99.90;;;;;;5059117;28;20232;-77
2024/01/15 02:55:08;;;;;;;5.82;3.03;;;-2.00;99.90;;;;;;5061164;28;20201;-77
2024/01/15 02:57:36;;;;;;;5.05;2.92;;;-2.10;99.90;;;;;;5060437;28;20204;-77
2024/01/15 03:00:03;;;;;;;4.47;3.85;;;-2.10;99.90;;;;;;5051514;28;20216;-77
2024/01/15 03:02:31;;;;;;;3.85;2.75;;;-2.10;99.90;;;;;;5051329;28;20228;-77
2024/01/15 03:04:58;;;;;;;5.28;2.38;;;-2.10;99.90;;;;;;5051063;28;20197;-77
2024/01/15 03:07:24;;;;;;;6.00;2.40;;;-2.10;99.90;;;;;;5052032;28;20204;-77
2024/01/15 03:09:51;;;;;;;3.28;3.03;;;-2.10;99.90;;;;;;5051084;28;20824;-77
2024/01/15 03:12:18;;;;;;;2.72;1.63;;;-2.20;99.90;;;;;;5051821;28;20225;-77
2024/01/15 03:14:46;;;;;;;9.57;3.20;;;-2.20;99.90;;;;;;5051678;28;20208;-77
2024/01/15 03:17:13;;;;;;;5.28;3.38;;;-2.20;99.90;;;;;;5051820;28;20204;-77
2024/01/15 03:19:40;;;;;;;3.95;2.65;;;-2.20;99.90;;;;;;5050993;28;20221;-77
2024/01/15 03:22:08;;;;;;;3.90;2.20;;;-2.20;99.90;;;;;;5052065;28;20575;-77
2024/01/15 03:24:36;;;;;;;2.97;2.60;;;-2.20;99.90;;;;;;5051730;28;20678;-77
2024/01/15 03:27:03;;;;;;;5.93;3.10;;;-2.20;99.90;;;;;;5051561;28;20209;-77
2024/01/15 03:29:30;;;;;;;7.00;2.63;;;-2.20;99.90;;;;;;5055792;28;20205;-77
2024/01/15 03:31:58;;;;;;;3.30;2.08;;;-2.20;99.90;;;;;;5055185;28;20224;-77
2024/01/15 03:34:24;;;;;;;6.70;3.58;;;-2.20;99.90;;;;;;5055328;28;20219;-77
2024/01/15 03:36:51;;;;;;;5.50;4.15;;;-2.20;99.90;;;;;;5055526;28;20205;-77
2024/01/15 03:39:18;;;;;;;4.40;3.65;;;-2.20;99.90;;;;;;5056021;28;20228;-77
2024/01/15 03:41:44;;;;;;;3.42;2.15;;;-2.20;99.90;;;;;;5055085;28;20236;-77
2024/01/15 03:44:11;;;;;;;3.28;2.97;;;-2.20;99.90;;;;;;5056054;28;20205;-77
2024/01/15 03:46:38;;;;;;;2.38;2.05;;;-2.20;99.90;;;;;;5056010;28;20201;-77
2024/01/15 03:49:06;;;;;;;8.35;2.95;;;-2.20;99.90;;;;;;5047759;28;20693;-77
2024/01/15 03:51:33;;;;;;;7.28;2.97;;;-2.20;99.90;;;;;;5056425;28;20224;-76
2024/01/15 03:53:59;;;;;;;2.65;1.88;;;-2.20;99.90;;;;;;5056153;28;20271;-77
2024/01/15 03:56:26;;;;;;;5.88;2.85;;;-2.10;99.90;;;;;;5059984;28;20209;-76
2024/01/15 03:58:53;;;;;;;5.32;2.40;;;-2.10;99.90;;;;;;5056023;28;20218;-77
2024/01/15 04:01:20;;;;;;;3.90;2.05;;;-2.10;99.90;;;;;;5060624;28;20213;-79
2024/01/15 04:03:47;;;;;;;5.80;4.07;;;-2.10;99.90;;;;;;5061232;28;20679;-78
2024/01/15 04:06:15;;;;;;;2.28;2.03;;;-2.00;99.90;;;;;;5059216;28;20216;-78
2024/01/15 04:08:42;;;;;;;7.88;2.97;;;-2.00;99.90;;;;;;5053235;28;20233;-77
2024/01/15 04:11:08;;;;;;;3.08;2.70;;;-2.00;99.90;;;;;;5050072;28;20292;-77
2024/01/15 04:13:35;;;;;;;10.07;3.88;;;-1.90;99.90;;;;;;5054572;28;20212;-77
2024/01/15 04:16:03;;;;;;;7.90;3.10;;;-1.90;99.90;;;;;;5054309;28;20207;-77
2024/01/15 04:18:30;;;;;;;2.50;2.13;;;-1.80;99.90;;;;;;5041739;28;20218;-77
2024/01/15 04:20:56;;;;;;;2.60;2.20;;;-1.80;99.90;;;;;;5042911;28;20206;-77
2024/01/15 04:23:24;;;;;;;1.75;1.65;;;-1.70;99.90;;;;;;5043617;28;20753;-77
2024/01/15 04:25:51;;;;;;;3.38;2.05;;;-1.60;99.90;;;;;;5044573;28;20202;-78
2024/01/15 04:28:18;;;;;;;7.15;2.10;;;-1.60;99.90;;;;;;5046668;28;20205;-78
2024/01/15 04:30:44;;;;;;;7.38;3.10;;;-1.60;99.90;;;;;;5051710;28;20201;-78
2024/01/15 04:33:11;;;;;;;6.57;3.60;;;-1.50;99.90;;;;;;5051007;28;20228;-79
2024/01/15 04:35:38;;;;;;;4.68;2.30;;;-1.50;99.90;;;;;;5050436;28;20244;-78
2024/01/15 04:38:05;;;;;;;7.95;4.22;;;-1.50;99.90;;;;;;5046974;28;20735;-78
2024/01/15 04:40:33;;;;;;;2.65;2.10;;;-1.50;99.90;;;;;;5050501;28;20299;-78
2024/01/15 04:43:00;;;;;;;1.52;1.42;;;-1.40;99.90;;;;;;5053503;28;20595;-79
2024/01/15 04:45:28;;;;;;;6.67;4.10;;;-1.30;99.90;;;;;;5048904;28;20959;-76
2024/01/15 04:47:56;;;;;;;6.93;3.13;;;-1.30;99.90;;;;;;5046437;28;20547;-76
2024/01/15 04:50:23;;;;;;;11.02;2.70;;;-1.20;99.90;;;;;;5051746;28;20235;-77
2024/01/15 04:52:50;;;;;;;3.65;2.55;;;-1.10;99.90;;;;;;5053989;28;20226;-76
2024/01/15 04:55:18;;;;;;;5.00;2.60;;;-1.00;99.90;;;;;;5055310;28;20197;-77
2024/01/15 04:57:47;;;;;;;5.28;2.95;;;-1.00;99.90;;;;;;5054804;28;20213;-76
2024/01/15 05:00:14;;;;;;;3.20;2.13;;;-1.00;99.90;;;;;;5055053;28;20228;-77
2024/01/15 05:02:41;;;;;;;4.18;3.78;;;-1.00;99.90;;;;;;5053971;28;20248;-77
2024/01/15 05:05:08;;;;;;;6.47;3.92;;;-1.00;99.90;;;;;;5053755;28;20201;-76
2024/01/15 05:07:34;;;;;;;7.18;3.75;;;-1.00;99.90;;;;;;5053933;28;20208;-76
2024/01/15 05:10:01;;;;;;;5.32;2.45;;;-1.00;99.90;;;;;;5053601;28;20208;-76
2024/01/15 05:12:28;;;;;;;5.05;2.55;;;-1.00;99.90;;;;;;5061445;28;20247;-77
2024/01/15 05:14:56;;;;;;;11.40;3.47;;;-1.00;99.90;;;;;;5068946;28;20619;-77
2024/01/15 05:17:23;;;;;;;3.60;3.30;;;-1.00;99.90;;;;;;5064710;28;20215;-76
2024/01/15 05:19:49;;;;;;;4.78;3.33;;;-0.90;99.90;;;;;;5058226;28;20221;-78
2024/01/15 05:22:16;;;;;;;3.72;2.63;;;-0.90;99.90;;;;;;5070466;28;20223;-78
2024/01/15 05:24:43;;;;;;;5.70;2.95;;;-0.90;99.90;;;;;;5065860;28;20205;-78
2024/01/15 05:27:10;;;;;;;2.90;2.47;;;-0.90;99.90;;;;;;5068474;28;20206;-78
2024/01/15 05:29:36;;;;;;;5.85;4.22;;;-0.90;99.90;;;;;;5064753;28;20213;-78
2024/01/15 05:32:05;;;;;;;10.40;4.30;;;-0.90;99.90;;;;;;5066645;28;20717;-78
2024/01/15 05:34:31;;;;;;;6.22;3.78;;;-0.90;99.90;;;;;;5067860;28;20209;-78
2024/01/15 05:36:58;;;;;;;6.75;2.60;;;-0.90;99.90;;;;;;5061527;28;20301;-78
2024/01/15 05:39:25;;;;;;;5.68;3.67;;;-0.90;99.90;;;;;;5060103;28;20217;-78
2024/01/15 05:41:51;;;;;;;3.97;2.15;;;-0.90;99.90;;;;;;5061587;28;20741;-78
2024/01/15 05:44:18;;;;;;;6.80;4.32;;;-1.00;99.90;;;;;;5061937;28;20213;-78
2024/01/15 05:46:45;;;;;;;4.35;3.90;;;-1.00;99.90;;;;;;5059556;28;20206;-78
2024/01/15 05:49:14;;;;;;;7.55;4.35;;;-1.00;99.90;;;;;;5058749;28;20208;-78
2024/01/15 05:51:40;;;;;;;4.38;2.50;;;-1.00;99.90;;;;;;5058128;28;20316;-78
2024/01/15 05:54:07;;;;;;;3.72;3.42;;;-1.00;99.90;;;;;;5058057;28;20209;-78
2024/01/15 05:56:34;;;;;;;11.30;3.80;;;-1.00;99.90;;;;;;5058684;28;20213;-78
2024/01/15 05:59:01;;;;;;;4.40;2.08;;;-1.00;99.90;;;;;;5057800;28;20221;-77
2024/01/15 06:01:28;;;;;;;4.65;3.17;;;-1.00;99.90;;;;;;5059585;28;20710;-77
2024/01/15 06:03:54;;;;;;;9.35;3.63;;;-1.00;99.90;;;;;;5058051;28;20215;-78
2024/01/15 06:06:23;;;;;;;2.95;2.65;;;-1.00;99.90;;;;;;5058371;28;20216;-77
2024/01/15 06:08:49;;;;;;;5.93;3.70;;;-1.10;99.90;;;;;;5058243;28;20216;-77
2024/01/15 06:11:16;;;;;;;5.80;2.75;;;-1.00;99.90;;;;;;5056375;28;20265;-77
2024/01/15 06:13:43;;;;;;;6.90;3.72;;;-1.10;99.90;;;;;;5057179;28;20615;-77
2024/01/15 06:16:15;;;;;;;3.03;2.35;;;-1.10;99.90;;;;;;5057271;28;20205;-77
2024/01/15 06:18:42;;;;;;;3.35;2.15;;;-1.10;99.90;;;;;;5057388;28;20289;-77
2024/01/15 06:21:10;;;;;;;7.32;2.50;;;-1.10;99.90;;;;;;5056500;28;20209;-78
2024/01/15 06:23:38;;;;;;;5.35;2.08;;;-1.10;99.90;;;;;;5058188;28;20205;-77
2024/01/15 06:26:05;;;;;;;2.53;1.95;;;-1.10;99.90;;;;;;5057867;28;20213;-77
2024/01/15 06:28:32;;;;;;;3.75;3.40;;;-1.10;99.90;;;;;;5061666;28;20673;-78
2024/01/15 06:30:59;;;;;;;5.47;2.97;;;-1.10;99.90;;;;;;5057477;28;20213;-77
2024/01/15 06:33:25;;;;;;;10.30;3.00;;;-1.10;99.90;;;;;;5057958;28;20217;-78
2024/01/15 06:35:52;;;;;;;6.70;3.13;;;-1.10;99.90;;;;;;5058069;28;20209;-78
2024/01/15 06:38:19;;;;;;;2.92;2.67;;;-1.10;99.90;;;;;;5056872;28;20201;-78
2024/01/15 06:40:48;;;;;;;3.78;2.42;;;-1.10;99.90;;;;;;5056971;28;20605;-77
2024/01/15 06:43:15;;;;;;;5.43;3.20;;;-1.10;99.90;;;;;;5056262;28;20331;-77
2024/01/15 06:45:41;;;;;;;4.78;3.38;;;-1.00;99.90;;;;;;5055596;28;20208;-78
2024/01/15 06:48:08;;;;;;;2.03;1.73;;;-1.00;99.90;;;;;;5056436;28;20594;-77
2024/01/15 06:50:35;;;;;;;3.88;3.15;;;-1.00;99.90;;;;;;5056491;28;20201;-78
2024/01/15 06:53:02;;;;;;;4.85;3.33;;;-1.00;99.90;;;;;;5057042;28;20229;-78
2024/01/15 06:55:28;;;;;;;3.92;3.53;;;-1.00;99.90;;;;;;5058049;28;20725;-78
2024/01/15 06:57:56;;;;;;;13.02;3.28;;;-1.00;99.90;;;;;;5056891;28;20219;-77
2024/01/15 07:00:23;;;;;;;7.00;3.25;;;-1.00;99.90;;;;;;5053666;28;20228;-77
2024/01/15 07:02:50;;;;;;;3.72;2.60;;;-0.90;99.90;;;;;;5051390;28;20548;-77
2024/01/15 07:05:17;;;;;;;5.82;2.50;;;-0.90;99.90;;;;;;5052159;28;20197;-77
2024/01/15 07:07:44;;;;;;;4.18;2.40;;;-0.90;99.90;;;;;;5052768;28;20216;-77
2024/01/15 07:10:11;;;;;;;7.35;3.45;;;-0.90;99.90;;;;;;5052383;28;20201;-78
2024/01/15 07:12:38;;;;;;;7.65;4.55;;;-0.90;99.90;;;;;;5053026;28;20229;-77
2024/01/15 07:15:07;;;;;;;5.85;2.75;;;-0.90;99.90;;;;;;5050882;28;20211;-77
2024/01/15 07:17:34;;;;;;;4.20;2.40;;;-1.00;99.90;;;;;;5054048;28;20209;-77
2024/01/15 07:20:01;;;;;;;4.25;2.33;;;-1.00;99.90;;;;;;5052470;28;20254;-77
2024/01/15 07:22:29;;;;;;;2.75;2.45;;;-1.00;99.90;;;;;;5065980;28;20221;-77
2024/01/15 07:24:56;;;;;;;7.35;2.53;;;-0.90;99.90;;;;;;5064405;28;20205;-77
2024/01/15 07:27:23;;;;;;;2.50;2.20;;;-0.90;99.90;;;;;;5062861;28;20600;-77
2024/01/15 07:29:49;;;;;;;5.90;2.80;;;-0.90;99.90;;;;;;5058712;28;20209;-77
2024/01/15 07:32:17;;;;;;;2.90;2.53;;;-1.00;99.90;;;;;;5051333;28;20225;-77
2024/01/15 07:34:44;;;;;;;2.67;2.28;;;-1.00;99.90;;;;;;5051110;28;20207;-77
2024/01/15 07:37:11;;;;;;;5.40;3.33;;;-1.00;99.90;;;;;;5051085;28;20228;-77
2024/01/15 07:39:38;;;;;;;4.75;2.47;;;-1.00;99.90;;;;;;5051680;28;20267;-77
2024/01/15 07:42:05;;;;;;;4.35;2.35;;;-0.90;99.90;;;;;;5049151;28;20229;-77
2024/01/15 07:44:32;;;;;;;6.30;4.28;;;-0.90;99.90;;;;;;5051486;28;20581;-77
2024/01/15 07:46:59;;;;;;;3.00;1.75;;;-0.90;99.90;;;;;;5051138;28;20213;-76
2024/01/15 07:49:27;;;;;;;3.75;2.70;;;-0.90;99.90;;;;;;5050945;28;20289;-77
2024/01/15 07:51:53;;;;;;;5.13;2.92;;;-0.80;99.90;;;;;;5050901;28;20232;-77
2024/01/15 07:54:20;;;;;;;3.38;2.20;;;-0.90;99.90;;;;;;5050628;28;20208;-77
2024/01/15 07:56:57;;;;;;;5.68;3.28;;;-0.80;99.90;;;;;;5051344;28;20213;-77
2024/01/15 07:59:24;;;;;;;4.35;2.15;;;-0.80;99.90;;;;;;5051574;28;20224;-77
2024/01/15 08:01:51;;;;;;;7.00;4.30;;;-0.80;99.90;;;;;;5051601;28;20598;-77
2024/01/15 08:04:18;;;;;;;5.13;3.13;;;-0.80;99.90;;;;;;5051039;28;20606;-77
2024/01/15 08:06:46;;;;;;;5.88;4.05;;;-0.70;99.90;;;;;;5051467;28;20216;-78
2024/01/15 08:09:13;;;;;;;2.97;2.70;;;-0.70;99.90;;;;;;5051130;28;20209;-77
2024/01/15 08:11:42;;;;;;;2.25;1.98;;;-0.70;99.90;;;;;;5051243;28;20236;-77
2024/01/15 08:14:09;;;;;;;1.80;1.70;;;-0.70;99.90;;;;;;5051794;28;20213;-77
2024/01/15 08:16:36;;;;;;;5.97;2.90;;;-0.70;99.90;;;;;;5054664;28;20228;-77
2024/01/15 08:19:02;;;;;;;7.82;3.33;;;-0.60;99.90;;;;;;5054231;28;20227;-77
2024/01/15 08:21:29;;;;;;;4.22;1.92;;;-0.60;99.90;;;;;;5054521;28;20311;-77
2024/01/15 08:23:58;;;;;;;3.75;2.30;;;-0.60;99.90;;;;;;5054379;28;20280;-77
2024/01/15 08:26:24;;;;;;;5.28;2.10;;;-0.60;99.90;;;;;;5054054;28;20674;-77
2024/01/15 08:28:51;;;;;;;6.90;2.85;;;-0.60;99.90;;;;;;5054328;28;20211;-76
2024/01/15 08:31:18;;;;;;;2.58;1.80;;;-0.60;99.90;;;;;;5053567;28;20208;-76
2024/01/15 08:33:45;;;;;;;7.90;2.92;;;-0.50;99.90;;;;;;5053571;28;20217;-76
2024/01/15 08:36:12;;;;;;;2.55;2.35;;;-0.50;99.90;;;;;;5053672;28;20646;-76
2024/01/15 08:38:39;;;;;;;5.25;2.85;;;-0.50;99.90;;;;;;5053630;28;20205;-76
2024/01/15 08:41:08;;;;;;;3.80;3.00;;;-0.40;99.90;;;;;;5053153;28;20225;-77
2024/01/15 08:43:36;;;;;;;2.85;2.13;;;-0.30;99.90;;;;;;5053481;28;20300;-76
2024/01/15 08:46:03;;;;;;;5.55;3.13;;;-0.30;99.90;;;;;;5053725;28;20205;-76
2024/01/15 08:48:30;;;;;;;3.15;2.45;;;-0.20;99.90;;;;;;5048616;28;20216;-76
2024/01/15 08:50:57;;;;;;;4.30;2.75;;;-0.20;99.90;;;;;;5053205;28;20205;-76
2024/01/15 08:53:24;;;;;;;3.25;2.35;;;-0.10;99.90;;;;;;5052626;28;20240;-76
2024/01/15 08:55:51;;;;;;;3.40;2.00;;;-0.10;99.90;;;;;;5053309;28;20205;-76
2024/01/15 08:58:19;;;;;;;3.67;1.60;;;0.00;99.90;;;;;;5053061;28;20205;-76
2024/01/15 09:00:45;;;;;;;3.65;2.45;;;0.00;99.90;;;;;;5053076;28;20225;-75
2024/01/15 09:03:12;;;;;;;2.95;2.45;;;0.00;99.90;;;;;;5052676;28;20228;-76
2024/01/15 09:05:40;;;;;;;3.22;1.98;;;0.10;99.90;;;;;;5053771;28;20575;-76
2024/01/15 09:08:07;;;;;;;2.03;1.88;;;0.20;99.90;;;;;;5053503;28;20221;-76
2024/01/15 09:10:34;;;;;;;3.40;2.00;;;0.30;99.90;;;;;;5053272;28;20197;-76
2024/01/15 09:13:01;;;;;;;5.55;2.33;;;0.20;99.90;;;;;;5052870;28;20232;-76
2024/01/15 09:15:29;;;;;;;2.33;1.60;;;0.20;99.90;;;;;;5052769;28;20311;-76
2024/01/15 09:17:57;;;;;;;2.13;1.92;;;0.30;99.90;;;;;;5052802;28;20212;-76
2024/01/15 09:20:24;;;;;;;6.65;2.58;;;0.30;99.90;;;;;;5052144;28;20256;-76
2024/01/15 09:22:50;;;;;;;2.50;1.67;;;0.30;99.90;;;;;;5052385;28;20225;-75
2024/01/15 09:25:17;;;;;;;2.00;1.70;;;0.30;99.90;;;;;;5052634;28;20197;-76
2024/01/15 09:27:44;;;;;;;2.20;1.95;;;0.30;99.90;;;;;;5052712;28;20689;-76
2024/01/15 09:30:12;;;;;;;2.10;1.92;;;0.30;99.90;;;;;;5052624;28;20197;-76
2024/01/15 09:32:40;;;;;;;1.60;1.50;;;0.40;99.90;;;;;;5052411;28;20294;-76
2024/01/15 09:35:07;;;;;;;8.65;2.53;;;0.40;99.90;;;;;;5048921;28;20654;-76
2024/01/15 09:37:34;;;;;;;2.20;1.50;;;0.40;99.90;;;;;;5048704;28;20583;-76
2024/01/15 09:40:01;;;;;;;2.88;2.10;;;0.30;99.90;;;;;;5052416;28;20229;-77
2024/01/15 09:42:29;;;;;;;2.15;1.95;;;0.30;99.90;;;;;;5054176;28;20232;-77
2024/01/15 09:44:56;;;;;;;3.05;1.73;;;0.40;99.90;;;;;;5054095;28;20202;-77
2024/01/15 09:47:24;;;;;;;2.45;1.42;;;0.50;99.90;;;;;;5053802;28;20211;-77
2024/01/15 09:49:52;;;;;;;2.90;2.25;;;0.60;99.90;;;;;;5060956;28;20217;-77
2024/01/15 09:52:20;;;;;;;5.25;3.63;;;0.70;99.90;;;;;;5061784;28;20224;-77
2024/01/15 09:54:48;;;;;;;3.17;1.50;;;0.70;99.90;;;;;;5054472;28;20206;-77
2024/01/15 09:57:14;;;;;;;5.38;1.63;;;0.80;99.90;;;;;;5059766;28;20280;-76
2024/01/15 09:59:43;;;;;;;3.15;1.85;;;0.70;99.90;;;;;;5053927;28;20207;-77
2024/01/15 10:02:14;;;;;;;3.05;2.03;;;0.70;99.90;;;;;;5053000;28;20252;-77
2024/01/15 10:04:41;;;;;;;2.92;1.70;;;0.70;99.90;;;;;;5049992;28;20209;-76
2024/01/15 10:07:11;;;;;;;3.65;3.30;;;0.70;99.90;;;;;;5052441;28;20212;-77
2024/01/15 10:09:37;;;;;;;4.18;1.60;;;0.70;99.90;;;;;;5048008;28;20209;-77
2024/01/15 10:12:05;;;;;;;1.38;1.10;;;0.70;99.90;;;;;;5047731;28;20224;-77
2024/01/15 10:14:32;;;;;;;2.75;1.85;;;0.80;99.90;;;;;;5051319;28;20221;-77
2024/01/15 10:16:59;;;;;;;2.28;2.08;;;0.80;99.90;;;;;;5052067;28;20793;-76
2024/01/15 10:19:26;;;;;;;2.85;2.47;;;0.80;99.90;;;;;;5051397;28;20205;-77
2024/01/15 10:21:52;;;;;;;2.28;1.50;;;0.70;99.90;;;;;;5051750;28;20221;-77
2024/01/15 10:24:21;;;;;;;3.83;2.10;;;0.70;99.90;;;;;;5051336;28;20201;-77
2024/01/15 10:26:49;;;;;;;2.38;1.85;;;0.70;99.90;;;;;;5052199;28;20201;-76
2024/01/15 10:29:16;;;;;;;3.90;2.53;;;0.80;99.90;;;;;;5051480;28;20201;-77
2024/01/15 10:31:43;;;;;;;1.35;1.25;;;0.80;99.90;;;;;;5051446;28;20216;-77
2024/01/15 10:34:15;;;;;;;3.78;2.53;;;0.90;99.90;;;;;;5051274;28;20200;-77
2024/01/15 10:36:42;;;;;;;3.25;2.25;;;0.90;99.90;;;;;;5047745;28;20670;-77
2024/01/15 10:39:09;;;;;;;4.47;2.33;;;0.90;99.90;;;;;;5051315;28;20207;-77
2024/01/15 10:41:37;;;;;;;2.90;1.88;;;0.90;99.90;;;;;;5050965;28;20233;-77
2024/01/15 10:44:04;;;;;;;1.75;1.65;;;0.80;99.90;;;;;;5050978;28;20201;-76
2024/01/15 10:46:32;;;;;;;4.68;1.92;;;0.90;99.90;;;;;;5051041;28;20563;-76
2024/01/15 10:48:59;;;;;;;2.85;1.65;;;1.00;99.90;;;;;;5051278;28;20201;-77
2024/01/15 10:51:26;;;;;;;1.50;1.25;;;1.00;99.90;;;;;;5050856;28;20634;-77
2024/01/15 10:53:54;;;;;;;1.80;1.60;;;1.00;99.90;;;;;;5051484;28;20678;-77
2024/01/15 10:56:23;;;;;;;3.22;2.58;;;1.00;99.90;;;;;;5052024;28;20205;-77
2024/01/15 10:58:52;;;;;;;4.70;2.88;;;0.90;99.90;;;;;;5051746;28;20205;-76
2024/01/15 11:01:20;;;;;;;5.82;2.72;;;1.00;99.90;;;;;;5051311;28;20304;-77
2024/01/15 11:03:48;;;;;;;4.28;2.13;;;1.00;99.90;;;;;;5051558;28;20198;-77
2024/01/15 11:06:19;;;;;;;4.15;1.83;;;1.00;99.90;;;;;;5052239;28;20595;-76
2024/01/15 11:08:47;;;;;;;6.05;3.13;;;1.00;99.90;;;;;;5051221;28;20202;-77
2024/01/15 11:11:14;;;;;;;2.45;1.88;;;0.90;99.90;;;;;;5052530;28;20216;-76
2024/01/15 11:13:41;;;;;;;4.95;3.13;;;0.90;99.90;;;;;;5050747;28;20210;-76
2024/01/15 11:16:11;;;;;;;3.25;2.50;;;0.90;99.90;;;;;;5051775;28;20650;-77
2024/01/15 11:18:40;;;;;;;3.08;2.00;;;0.70;99.90;;;;;;5052183;28;20577;-78
2024/01/15 11:21:27;;;;;;;3.53;2.45;;;0.70;99.90;;;;;;5046845;28;20217;-76
2024/01/15 11:23:57;;;;;;;2.30;2.03;;;0.70;99.90;;;;;;5051272;28;20201;-75
2024/01/15 11:26:35;;;;;;;2.80;2.28;;;0.80;99.90;;;;;;5050830;28;20201;-75
2024/01/15 11:29:04;;;;;;;4.05;2.65;;;0.90;99.90;;;;;;5050712;28;20201;-76
2024/01/15 11:31:59;;;;;;;3.92;2.42;;;1.10;99.90;;;;;;5050520;28;20221;-76
2024/01/15 11:34:51;;;;;;;1.42;1.30;;;1.20;99.90;;;;;;5048903;28;20203;-77
2024/01/15 11:37:18;;;;;;;3.92;2.20;;;1.20;99.90;;;;;;5048530;28;20208;-77
2024/01/15 11:39:44;;;;;;;2.53;1.70;;;1.10;99.90;;;;;;5050826;28;20206;-77
2024/01/15 11:42:12;;;;;;;1.92;1.73;;;1.10;99.90;;;;;;5050865;28;20230;-78
2024/01/15 11:44:39;;;;;;;2.97;2.72;;;1.00;99.90;;;;;;5050537;28;20208;-78
2024/01/15 11:47:09;;;;;;;4.00;2.45;;;0.90;99.90;;;;;;5048520;28;20213;-76
2024/01/15 11:49:59;;;;;;;3.53;2.92;;;0.90;99.90;;;;;;5054372;28;20255;-75
2024/01/15 11:52:26;;;;;;;2.38;1.90;;;0.90;99.90;;;;;;5051744;28;20221;-77
2024/01/15 11:55:02;;;;;;;3.58;2.35;;;0.80;99.90;;;;;;5054865;28;20200;-77
2024/01/15 11:57:38;;;;;;;1.98;1.88;;;0.80;99.90;;;;;;5055086;28;20231;-77
2024/01/15 12:00:07;;;;;;;3.38;2.45;;;0.90;99.90;;;;;;5055147;28;20223;-77
2024/01/15 12:02:35;;;;;;;6.07;2.03;;;0.80;99.90;;;;;;5057216;28;20233;-77
2024/01/15 12:05:02;;;;;;;6.25;4.05;;;0.80;99.90;;;;;;5060745;28;20204;-78
2024/01/15 12:07:29;;;;;;;3.05;1.95;;;0.80;99.90;;;;;;5059481;28;20228;-77
2024/01/15 12:09:56;;;;;;;2.53;2.33;;;0.80;99.90;;;;;;5060585;28;20666;-78
2024/01/15 12:12:35;;;;;;;3.20;2.90;;;0.70;99.90;;;;;;5061252;28;20284;-77
2024/01/15 12:15:02;;;;;;;5.47;1.67;;;0.70;99.90;;;;;;5055333;28;20197;-78
2024/01/15 12:17:28;;;;;;;4.25;2.38;;;0.70;99.90;;;;;;5048701;28;20209;-77
2024/01/15 12:19:58;;;;;;;3.08;1.33;;;0.60;99.90;;;;;;5055367;28;20201;-77
2024/01/15 12:22:25;;;;;;;4.00;2.30;;;0.60;99.90;;;;;;5063967;28;20658;-78
2024/01/15 12:24:51;;;;;;;1.40;1.30;;;0.60;99.90;;;;;;5055701;28;20259;-77
2024/01/15 12:27:18;;;;;;;6.68;2.40;;;0.50;99.90;;;;;;5053490;28;20209;-78
2024/01/15 12:29:45;;;;;;;3.38;2.90;;;0.40;99.90;;;;;;5053417;28;20270;-78
2024/01/15 12:32:13;;;;;;;2.65;1.85;;;0.30;99.90;;;;;;5056042;28;20221;-78
2024/01/15 12:34:40;;;;;;;2.30;1.88;;;0.30;99.90;;;;;;5052881;28;20209;-77
2024/01/15 12:37:10;;;;;;;5.18;2.72;;;0.30;99.90;;;;;;5053315;28;20670;-77
2024/01/15 12:39:37;;;;;;;3.00;2.70;;;0.30;99.90;;;;;;5053324;28;20205;-78
2024/01/15 12:42:05;;;;;;;2.80;2.10;;;0.20;99.90;;;;;;5053451;28;20232;-78
2024/01/15 12:44:32;;;;;;;2.35;2.08;;;0.30;99.90;;;;;;5053053;28;20216;-78
2024/01/15 12:46:59;;;;;;;2.70;2.50;;;0.20;99.90;;;;;;5053576;28;20798;-78
2024/01/15 12:49:26;;;;;;;1.70;1.30;;;0.20;99.90;;;;;;5053604;28;20201;-77
2024/01/15 12:51:54;;;;;;;3.30;2.30;;;0.20;99.90;;;;;;5053397;28;20229;-78